sensor_id;sensor_type;location;lat;lon;timestamp;temperature;humidity
78767;SHT31;68092;51.982;5.680;2023-06-05T00:01:39;18.2;50.0
78767;SHT31;68092;51.982;5.680;2023-06-05T00:04:11;18.1;49.6
78767;SHT31;68092;51.982;5.680;2023-06-05T00:06:44;18.1;49.9
78767;SHT31;68092;51.982;5.680;2023-06-05T00:09:14;18.0;49.9
78767;SHT31;68092;51.982;5.680;2023-06-05T00:11:43;18.0;50.2
78767;SHT31;68092;51.982;5.680;2023-06-05T00:14:13;18.0;50.2
78767;SHT31;68092;51.982;5.680;2023-06-05T00:16:49;17.9;50.4
78767;SHT31;68092;51.982;5.680;2023-06-05T00:19:19;17.9;50.5
78767;SHT31;68092;51.982;5.680;2023-06-05T00:21:49;17.8;50.3
78767;SHT31;68092;51.982;5.680;2023-06-05T00:24:22;17.8;50.5
78767;SHT31;68092;51.982;5.680;2023-06-05T00:26:53;17.7;50.8
78767;SHT31;68092;51.982;5.680;2023-06-05T00:29:23;17.7;51.1
78767;SHT31;68092;51.982;5.680;2023-06-05T00:31:52;17.7;51.0
78767;SHT31;68092;51.982;5.680;2023-06-05T00:34:24;17.6;51.2
78767;SHT31;68092;51.982;5.680;2023-06-05T00:36:54;17.6;51.1
78767;SHT31;68092;51.982;5.680;2023-06-05T00:39:25;17.5;51.5
78767;SHT31;68092;51.982;5.680;2023-06-05T00:41:58;17.5;51.5
78767;SHT31;68092;51.982;5.680;2023-06-05T00:44:28;17.4;51.7
78767;SHT31;68092;51.982;5.680;2023-06-05T00:46:57;17.4;51.7
78767;SHT31;68092;51.982;5.680;2023-06-05T00:49:28;17.4;52.0
78767;SHT31;68092;51.982;5.680;2023-06-05T00:51:59;17.3;51.9
78767;SHT31;68092;51.982;5.680;2023-06-05T00:54:31;17.3;52.0
78767;SHT31;68092;51.982;5.680;2023-06-05T00:57:02;17.3;51.9
78767;SHT31;68092;51.982;5.680;2023-06-05T00:59:32;17.2;52.2
78767;SHT31;68092;51.982;5.680;2023-06-05T01:02:02;17.2;52.3
78767;SHT31;68092;51.982;5.680;2023-06-05T01:04:31;17.2;52.3
78767;SHT31;68092;51.982;5.680;2023-06-05T01:07:04;17.1;52.3
78767;SHT31;68092;51.982;5.680;2023-06-05T01:09:35;17.1;52.2
78767;SHT31;68092;51.982;5.680;2023-06-05T01:12:11;17.1;52.5
78767;SHT31;68092;51.982;5.680;2023-06-05T01:14:45;17.0;52.5
78767;SHT31;68092;51.982;5.680;2023-06-05T01:17:22;17.0;52.5
78767;SHT31;68092;51.982;5.680;2023-06-05T01:19:53;17.0;52.8
78767;SHT31;68092;51.982;5.680;2023-06-05T01:22:23;17.0;52.7
78767;SHT31;68092;51.982;5.680;2023-06-05T01:24:54;16.9;53.0
78767;SHT31;68092;51.982;5.680;2023-06-05T01:27:30;16.9;53.0
78767;SHT31;68092;51.982;5.680;2023-06-05T01:30:05;16.9;53.0
78767;SHT31;68092;51.982;5.680;2023-06-05T01:32:42;16.9;53.0
78767;SHT31;68092;51.982;5.680;2023-06-05T01:35:13;16.8;53.3
78767;SHT31;68092;51.982;5.680;2023-06-05T01:37:47;16.8;53.2
78767;SHT31;68092;51.982;5.680;2023-06-05T01:40:22;16.8;53.3
78767;SHT31;68092;51.982;5.680;2023-06-05T01:42:54;16.7;53.6
78767;SHT31;68092;51.982;5.680;2023-06-05T01:45:25;16.7;53.6
78767;SHT31;68092;51.982;5.680;2023-06-05T01:48:00;16.7;53.6
78767;SHT31;68092;51.982;5.680;2023-06-05T01:50:33;16.6;53.7
78767;SHT31;68092;51.982;5.680;2023-06-05T01:53:04;16.6;53.9
78767;SHT31;68092;51.982;5.680;2023-06-05T01:55:34;16.5;54.0
78767;SHT31;68092;51.982;5.680;2023-06-05T01:58:06;16.5;54.1
78767;SHT31;68092;51.982;5.680;2023-06-05T02:00:36;16.5;54.2
78767;SHT31;68092;51.982;5.680;2023-06-05T02:03:06;16.4;54.3
78767;SHT31;68092;51.982;5.680;2023-06-05T02:05:36;16.4;54.2
78767;SHT31;68092;51.982;5.680;2023-06-05T02:08:07;16.4;54.5
78767;SHT31;68092;51.982;5.680;2023-06-05T02:10:37;16.3;54.6
78767;SHT31;68092;51.982;5.680;2023-06-05T02:13:11;16.3;54.6
78767;SHT31;68092;51.982;5.680;2023-06-05T02:15:42;16.2;54.8
78767;SHT31;68092;51.982;5.680;2023-06-05T02:18:14;16.2;54.8
78767;SHT31;68092;51.982;5.680;2023-06-05T02:20:44;16.2;54.8
78767;SHT31;68092;51.982;5.680;2023-06-05T02:23:16;16.1;55.0
78767;SHT31;68092;51.982;5.680;2023-06-05T02:25:47;16.1;54.9
78767;SHT31;68092;51.982;5.680;2023-06-05T02:28:18;16.1;55.2
78767;SHT31;68092;51.982;5.680;2023-06-05T02:30:48;16.0;55.1
78767;SHT31;68092;51.982;5.680;2023-06-05T02:33:20;16.0;55.4
78767;SHT31;68092;51.982;5.680;2023-06-05T02:35:50;16.0;55.4
78767;SHT31;68092;51.982;5.680;2023-06-05T02:38:20;16.0;55.3
78767;SHT31;68092;51.982;5.680;2023-06-05T02:40:51;16.0;55.4
78767;SHT31;68092;51.982;5.680;2023-06-05T02:43:21;15.9;55.5
78767;SHT31;68092;51.982;5.680;2023-06-05T02:45:50;15.9;55.6
78767;SHT31;68092;51.982;5.680;2023-06-05T02:48:20;15.9;55.7
78767;SHT31;68092;51.982;5.680;2023-06-05T02:50:50;15.9;55.4
78767;SHT31;68092;51.982;5.680;2023-06-05T02:53:20;15.8;56.0
78767;SHT31;68092;51.982;5.680;2023-06-05T02:55:51;15.8;55.8
78767;SHT31;68092;51.982;5.680;2023-06-05T02:58:24;15.9;55.6
78767;SHT31;68092;51.982;5.680;2023-06-05T03:00:58;15.9;55.7
78767;SHT31;68092;51.982;5.680;2023-06-05T03:03:31;15.8;55.5
78767;SHT31;68092;51.982;5.680;2023-06-05T03:06:02;15.8;55.3
78767;SHT31;68092;51.982;5.680;2023-06-05T03:08:35;15.8;55.6
78767;SHT31;68092;51.982;5.680;2023-06-05T03:11:07;15.8;55.4
78767;SHT31;68092;51.982;5.680;2023-06-05T03:13:38;15.7;56.0
78767;SHT31;68092;51.982;5.680;2023-06-05T03:16:08;15.7;55.8
78767;SHT31;68092;51.982;5.680;2023-06-05T03:18:38;15.7;56.0
78767;SHT31;68092;51.982;5.680;2023-06-05T03:21:08;15.6;56.1
78767;SHT31;68092;51.982;5.680;2023-06-05T03:23:40;15.6;56.2
78767;SHT31;68092;51.982;5.680;2023-06-05T03:26:09;15.6;56.1
78767;SHT31;68092;51.982;5.680;2023-06-05T03:28:39;15.6;56.2
78767;SHT31;68092;51.982;5.680;2023-06-05T03:31:08;15.6;56.1
78767;SHT31;68092;51.982;5.680;2023-06-05T03:33:40;15.5;56.1
78767;SHT31;68092;51.982;5.680;2023-06-05T03:36:09;15.5;56.3
78767;SHT31;68092;51.982;5.680;2023-06-05T03:38:41;15.5;56.6
78767;SHT31;68092;51.982;5.680;2023-06-05T03:41:10;15.4;56.6
78767;SHT31;68092;51.982;5.680;2023-06-05T03:43:40;15.4;56.8
78767;SHT31;68092;51.982;5.680;2023-06-05T03:46:13;15.4;56.7
78767;SHT31;68092;51.982;5.680;2023-06-05T03:48:52;15.4;56.8
78767;SHT31;68092;51.982;5.680;2023-06-05T03:51:26;15.4;56.9
78767;SHT31;68092;51.982;5.680;2023-06-05T03:53:59;15.3;57.0
78767;SHT31;68092;51.982;5.680;2023-06-05T03:56:32;15.3;56.8
78767;SHT31;68092;51.982;5.680;2023-06-05T03:59:08;15.3;56.9
78767;SHT31;68092;51.982;5.680;2023-06-05T04:01:43;15.3;57.1
78767;SHT31;68092;51.982;5.680;2023-06-05T04:04:13;15.3;57.4
78767;SHT31;68092;51.982;5.680;2023-06-05T04:06:47;15.2;57.3
78767;SHT31;68092;51.982;5.680;2023-06-05T04:09:17;15.2;57.3
78767;SHT31;68092;51.982;5.680;2023-06-05T04:11:47;15.2;57.6
78767;SHT31;68092;51.982;5.680;2023-06-05T04:14:27;15.2;57.7
78767;SHT31;68092;51.982;5.680;2023-06-05T04:16:57;15.2;57.5
78767;SHT31;68092;51.982;5.680;2023-06-05T04:19:29;15.1;57.8
78767;SHT31;68092;51.982;5.680;2023-06-05T04:21:58;15.1;57.9
78767;SHT31;68092;51.982;5.680;2023-06-05T04:24:29;15.1;58.0
78767;SHT31;68092;51.982;5.680;2023-06-05T04:26:58;15.1;58.1
78767;SHT31;68092;51.982;5.680;2023-06-05T04:29:30;15.1;58.0
78767;SHT31;68092;51.982;5.680;2023-06-05T04:32:02;15.1;58.3
78767;SHT31;68092;51.982;5.680;2023-06-05T04:34:33;15.1;58.2
78767;SHT31;68092;51.982;5.680;2023-06-05T04:37:03;15.1;58.3
78767;SHT31;68092;51.982;5.680;2023-06-05T04:39:33;15.1;58.3
78767;SHT31;68092;51.982;5.680;2023-06-05T04:42:02;15.1;58.5
78767;SHT31;68092;51.982;5.680;2023-06-05T04:44:32;15.1;58.7
78767;SHT31;68092;51.982;5.680;2023-06-05T04:47:08;15.1;58.6
78767;SHT31;68092;51.982;5.680;2023-06-05T04:49:39;15.1;58.3
78767;SHT31;68092;51.982;5.680;2023-06-05T04:52:09;15.1;58.5
78767;SHT31;68092;51.982;5.680;2023-06-05T04:54:39;15.2;58.4
78767;SHT31;68092;51.982;5.680;2023-06-05T04:57:09;15.2;58.9
78767;SHT31;68092;51.982;5.680;2023-06-05T04:59:39;15.2;58.7
78767;SHT31;68092;51.982;5.680;2023-06-05T05:02:11;15.2;58.7
78767;SHT31;68092;51.982;5.680;2023-06-05T05:04:41;15.2;58.8
78767;SHT31;68092;51.982;5.680;2023-06-05T05:07:10;15.2;58.8
78767;SHT31;68092;51.982;5.680;2023-06-05T05:09:43;15.2;58.7
78767;SHT31;68092;51.982;5.680;2023-06-05T05:12:14;15.2;58.8
78767;SHT31;68092;51.982;5.680;2023-06-05T05:14:43;15.3;59.1
78767;SHT31;68092;51.982;5.680;2023-06-05T05:17:14;15.3;58.9
78767;SHT31;68092;51.982;5.680;2023-06-05T05:19:48;15.3;59.1
78767;SHT31;68092;51.982;5.680;2023-06-05T05:22:18;15.3;59.3
78767;SHT31;68092;51.982;5.680;2023-06-05T05:24:48;15.3;59.3
78767;SHT31;68092;51.982;5.680;2023-06-05T05:27:18;15.4;59.3
78767;SHT31;68092;51.982;5.680;2023-06-05T05:29:49;15.4;60.0
78767;SHT31;68092;51.982;5.680;2023-06-05T05:32:20;15.5;59.3
78767;SHT31;68092;51.982;5.680;2023-06-05T05:34:50;15.5;58.9
78767;SHT31;68092;51.982;5.680;2023-06-05T05:37:20;15.6;58.1
78767;SHT31;68092;51.982;5.680;2023-06-05T05:39:50;15.6;58.8
78767;SHT31;68092;51.982;5.680;2023-06-05T05:42:21;15.7;58.6
78767;SHT31;68092;51.982;5.680;2023-06-05T05:44:51;15.8;58.5
78767;SHT31;68092;51.982;5.680;2023-06-05T05:47:21;15.8;59.0
78767;SHT31;68092;51.982;5.680;2023-06-05T05:49:51;15.9;58.2
78767;SHT31;68092;51.982;5.680;2023-06-05T05:52:21;15.9;58.2
78767;SHT31;68092;51.982;5.680;2023-06-05T05:54:50;16.0;58.5
78767;SHT31;68092;51.982;5.680;2023-06-05T05:57:21;16.0;57.9
78767;SHT31;68092;51.982;5.680;2023-06-05T05:59:55;16.1;57.6
78767;SHT31;68092;51.982;5.680;2023-06-05T06:02:24;16.2;58.4
78767;SHT31;68092;51.982;5.680;2023-06-05T06:04:54;16.2;57.7
78767;SHT31;68092;51.982;5.680;2023-06-05T06:07:24;16.3;57.7
78767;SHT31;68092;51.982;5.680;2023-06-05T06:09:54;16.4;57.8
78767;SHT31;68092;51.982;5.680;2023-06-05T06:12:23;16.4;57.0
78767;SHT31;68092;51.982;5.680;2023-06-05T06:14:55;16.5;57.2
78767;SHT31;68092;51.982;5.680;2023-06-05T06:17:27;16.5;57.1
78767;SHT31;68092;51.982;5.680;2023-06-05T06:19:58;16.6;56.6
78767;SHT31;68092;51.982;5.680;2023-06-05T06:22:28;16.7;56.3
78767;SHT31;68092;51.982;5.680;2023-06-05T06:24:58;16.7;56.7
78767;SHT31;68092;51.982;5.680;2023-06-05T06:27:29;16.8;56.2
78767;SHT31;68092;51.982;5.680;2023-06-05T06:30:01;16.8;56.3
78767;SHT31;68092;51.982;5.680;2023-06-05T06:32:30;16.9;55.6
78767;SHT31;68092;51.982;5.680;2023-06-05T06:35:00;16.9;55.8
78767;SHT31;68092;51.982;5.680;2023-06-05T06:37:29;17.0;55.3
78767;SHT31;68092;51.982;5.680;2023-06-05T06:39:59;17.1;55.7
78767;SHT31;68092;51.982;5.680;2023-06-05T06:42:31;17.1;55.6
78767;SHT31;68092;51.982;5.680;2023-06-05T06:45:01;17.2;54.7
78767;SHT31;68092;51.982;5.680;2023-06-05T06:47:31;17.3;54.4
78767;SHT31;68092;51.982;5.680;2023-06-05T06:50:03;17.4;54.3
78767;SHT31;68092;51.982;5.680;2023-06-05T06:52:34;17.4;54.7
78767;SHT31;68092;51.982;5.680;2023-06-05T06:55:07;17.5;54.4
78767;SHT31;68092;51.982;5.680;2023-06-05T06:57:39;17.6;54.7
78767;SHT31;68092;51.982;5.680;2023-06-05T07:00:13;17.6;53.8
78767;SHT31;68092;51.982;5.680;2023-06-05T07:02:43;17.7;53.5
78767;SHT31;68092;51.982;5.680;2023-06-05T07:05:13;17.8;52.9
78767;SHT31;68092;51.982;5.680;2023-06-05T07:07:46;17.8;53.4
78767;SHT31;68092;51.982;5.680;2023-06-05T07:10:19;17.9;52.6
78767;SHT31;68092;51.982;5.680;2023-06-05T07:12:49;18.0;52.3
78767;SHT31;68092;51.982;5.680;2023-06-05T07:15:20;18.0;52.6
78767;SHT31;68092;51.982;5.680;2023-06-05T07:17:50;18.1;51.9
78767;SHT31;68092;51.982;5.680;2023-06-05T07:20:20;18.1;51.6
78767;SHT31;68092;51.982;5.680;2023-06-05T07:22:50;18.2;52.5
78767;SHT31;68092;51.982;5.680;2023-06-05T07:25:20;18.2;51.6
78767;SHT31;68092;51.982;5.680;2023-06-05T07:27:55;18.3;52.4
78767;SHT31;68092;51.982;5.680;2023-06-05T07:30:27;18.4;51.6
78767;SHT31;68092;51.982;5.680;2023-06-05T07:32:57;18.5;51.8
78767;SHT31;68092;51.982;5.680;2023-06-05T07:35:27;18.6;52.1
78767;SHT31;68092;51.982;5.680;2023-06-05T07:37:57;18.8;51.6
78767;SHT31;68092;51.982;5.680;2023-06-05T07:40:31;19.0;51.8
78767;SHT31;68092;51.982;5.680;2023-06-05T07:43:01;19.2;50.9
78767;SHT31;68092;51.982;5.680;2023-06-05T07:45:30;19.3;50.7
78767;SHT31;68092;51.982;5.680;2023-06-05T07:48:00;19.4;50.9
78767;SHT31;68092;51.982;5.680;2023-06-05T07:50:29;19.5;49.5
78767;SHT31;68092;51.982;5.680;2023-06-05T07:52:59;19.6;48.9
78767;SHT31;68092;51.982;5.680;2023-06-05T07:55:28;19.7;48.1
78767;SHT31;68092;51.982;5.680;2023-06-05T07:57:58;19.8;47.8
78767;SHT31;68092;51.982;5.680;2023-06-05T08:00:29;19.8;48.9
78767;SHT31;68092;51.982;5.680;2023-06-05T08:03:00;19.9;48.6
78767;SHT31;68092;51.982;5.680;2023-06-05T08:05:30;19.9;48.6
78767;SHT31;68092;51.982;5.680;2023-06-05T08:08:02;20.0;48.2
78767;SHT31;68092;51.982;5.680;2023-06-05T08:10:32;20.0;48.2
78767;SHT31;68092;51.982;5.680;2023-06-05T08:13:02;20.1;48.4
78767;SHT31;68092;51.982;5.680;2023-06-05T08:15:35;20.1;47.1
78767;SHT31;68092;51.982;5.680;2023-06-05T08:18:05;20.2;47.8
78767;SHT31;68092;51.982;5.680;2023-06-05T08:20:35;20.2;47.4
78767;SHT31;68092;51.982;5.680;2023-06-05T08:23:04;20.3;48.1
78767;SHT31;68092;51.982;5.680;2023-06-05T08:25:35;20.3;47.8
78767;SHT31;68092;51.982;5.680;2023-06-05T08:28:05;20.4;48.0
78767;SHT31;68092;51.982;5.680;2023-06-05T08:30:34;20.5;48.7
78767;SHT31;68092;51.982;5.680;2023-06-05T08:33:04;20.6;46.8
78767;SHT31;68092;51.982;5.680;2023-06-05T08:35:34;20.6;48.0
78767;SHT31;68092;51.982;5.680;2023-06-05T08:38:04;20.7;48.1
78767;SHT31;68092;51.982;5.680;2023-06-05T08:40:36;20.8;46.4
78767;SHT31;68092;51.982;5.680;2023-06-05T08:43:08;20.9;47.1
78767;SHT31;68092;51.982;5.680;2023-06-05T08:45:40;21.0;46.9
78767;SHT31;68092;51.982;5.680;2023-06-05T08:48:13;21.1;46.3
78767;SHT31;68092;51.982;5.680;2023-06-05T08:50:44;21.2;45.8
78767;SHT31;68092;51.982;5.680;2023-06-05T08:53:16;21.3;45.5
78767;SHT31;68092;51.982;5.680;2023-06-05T08:55:51;21.4;45.1
78767;SHT31;68092;51.982;5.680;2023-06-05T08:58:26;21.4;45.4
78767;SHT31;68092;51.982;5.680;2023-06-05T09:00:56;21.5;45.6
78767;SHT31;68092;51.982;5.680;2023-06-05T09:03:26;21.6;45.5
78767;SHT31;68092;51.982;5.680;2023-06-05T09:05:56;21.7;46.9
78767;SHT31;68092;51.982;5.680;2023-06-05T09:08:33;21.8;45.1
78767;SHT31;68092;51.982;5.680;2023-06-05T09:11:25;22.0;44.8
78767;SHT31;68092;51.982;5.680;2023-06-05T09:14:08;22.1;44.2
78767;SHT31;68092;51.982;5.680;2023-06-05T09:16:42;22.3;47.1
78767;SHT31;68092;51.982;5.680;2023-06-05T09:19:13;22.4;44.4
78767;SHT31;68092;51.982;5.680;2023-06-05T09:21:53;22.6;44.2
78767;SHT31;68092;51.982;5.680;2023-06-05T09:24:23;22.7;45.7
78767;SHT31;68092;51.982;5.680;2023-06-05T09:26:59;22.9;42.6
78767;SHT31;68092;51.982;5.680;2023-06-05T09:29:30;23.0;43.6
78767;SHT31;68092;51.982;5.680;2023-06-05T09:32:02;23.1;43.5
78767;SHT31;68092;51.982;5.680;2023-06-05T09:34:34;23.3;42.5
78767;SHT31;68092;51.982;5.680;2023-06-05T09:37:05;23.4;41.0
78767;SHT31;68092;51.982;5.680;2023-06-05T09:39:37;23.6;42.3
78767;SHT31;68092;51.982;5.680;2023-06-05T09:42:07;23.7;40.8
78767;SHT31;68092;51.982;5.680;2023-06-05T09:44:36;23.8;42.1
78767;SHT31;68092;51.982;5.680;2023-06-05T09:47:08;23.9;41.0
78767;SHT31;68092;51.982;5.680;2023-06-05T09:49:47;24.0;39.7
78767;SHT31;68092;51.982;5.680;2023-06-05T09:52:19;24.2;40.1
78767;SHT31;68092;51.982;5.680;2023-06-05T09:54:54;24.4;39.7
78767;SHT31;68092;51.982;5.680;2023-06-05T09:57:29;24.5;40.4
78767;SHT31;68092;51.982;5.680;2023-06-05T10:00:02;24.6;39.7
78767;SHT31;68092;51.982;5.680;2023-06-05T10:02:35;24.8;40.8
78767;SHT31;68092;51.982;5.680;2023-06-05T10:05:14;24.9;39.8
78767;SHT31;68092;51.982;5.680;2023-06-05T10:07:45;25.1;39.9
78767;SHT31;68092;51.982;5.680;2023-06-05T10:10:20;25.3;37.7
78767;SHT31;68092;51.982;5.680;2023-06-05T10:12:49;25.4;39.3
78767;SHT31;68092;51.982;5.680;2023-06-05T10:15:24;25.6;37.2
78767;SHT31;68092;51.982;5.680;2023-06-05T10:17:57;25.8;39.7
78767;SHT31;68092;51.982;5.680;2023-06-05T10:20:29;26.0;37.5
78767;SHT31;68092;51.982;5.680;2023-06-05T10:22:59;26.2;37.3
78767;SHT31;68092;51.982;5.680;2023-06-05T10:25:31;26.4;38.4
78767;SHT31;68092;51.982;5.680;2023-06-05T10:29:27;26.7;37.6
78767;SHT31;68092;51.982;5.680;2023-06-05T10:33:24;27.2;35.1
78767;SHT31;68092;51.982;5.680;2023-06-05T10:36:27;27.5;36.7
78767;SHT31;68092;51.982;5.680;2023-06-05T10:39:08;27.8;34.4
78767;SHT31;68092;51.982;5.680;2023-06-05T10:41:40;28.0;33.5
78767;SHT31;68092;51.982;5.680;2023-06-05T10:44:11;28.1;33.5
78767;SHT31;68092;51.982;5.680;2023-06-05T10:46:41;28.3;33.9
78767;SHT31;68092;51.982;5.680;2023-06-05T10:49:12;28.5;33.7
78767;SHT31;68092;51.982;5.680;2023-06-05T10:51:46;28.6;34.1
78767;SHT31;68092;51.982;5.680;2023-06-05T10:54:54;28.8;33.9
78767;SHT31;68092;51.982;5.680;2023-06-05T10:57:26;29.0;32.9
78767;SHT31;68092;51.982;5.680;2023-06-05T11:00:06;29.1;32.9
78767;SHT31;68092;51.982;5.680;2023-06-05T11:02:46;29.3;31.7
78767;SHT31;68092;51.982;5.680;2023-06-05T11:05:16;29.5;31.4
78767;SHT31;68092;51.982;5.680;2023-06-05T11:07:47;29.6;32.0
78767;SHT31;68092;51.982;5.680;2023-06-05T11:10:18;29.7;32.1
78767;SHT31;68092;51.982;5.680;2023-06-05T11:13:23;29.9;32.4
78767;SHT31;68092;51.982;5.680;2023-06-05T11:15:53;30.0;30.9
78767;SHT31;68092;51.982;5.680;2023-06-05T11:18:35;30.2;30.6
78767;SHT31;68092;51.982;5.680;2023-06-05T11:21:11;30.4;32.9
78767;SHT31;68092;51.982;5.680;2023-06-05T11:24:15;30.6;30.2
78767;SHT31;68092;51.982;5.680;2023-06-05T11:26:44;30.8;29.4
78767;SHT31;68092;51.982;5.680;2023-06-05T11:32:38;31.2;29.6
78767;SHT31;68092;51.982;5.680;2023-06-05T11:35:10;31.3;28.8
78767;SHT31;68092;51.982;5.680;2023-06-05T11:37:42;31.4;29.4
78767;SHT31;68092;51.982;5.680;2023-06-05T11:40:26;31.6;29.3
78767;SHT31;68092;51.982;5.680;2023-06-05T11:43:05;31.7;29.8
78767;SHT31;68092;51.982;5.680;2023-06-05T11:45:38;31.8;28.6
78767;SHT31;68092;51.982;5.680;2023-06-05T11:48:10;31.8;29.7
78767;SHT31;68092;51.982;5.680;2023-06-05T11:57:30;32.1;30.5
78767;SHT31;68092;51.982;5.680;2023-06-05T12:00:26;32.4;28.2
78767;SHT31;68092;51.982;5.680;2023-06-05T12:02:56;32.6;28.1
78767;SHT31;68092;51.982;5.680;2023-06-05T12:05:28;32.8;27.1
78767;SHT31;68092;51.982;5.680;2023-06-05T12:07:59;32.9;28.4
78767;SHT31;68092;51.982;5.680;2023-06-05T12:10:35;33.0;26.6
78767;SHT31;68092;51.982;5.680;2023-06-05T12:13:05;33.0;27.3
78767;SHT31;68092;51.982;5.680;2023-06-05T12:15:34;33.0;27.1
78767;SHT31;68092;51.982;5.680;2023-06-05T12:18:04;33.0;27.4
78767;SHT31;68092;51.982;5.680;2023-06-05T12:20:39;33.0;28.4
78767;SHT31;68092;51.982;5.680;2023-06-05T12:23:19;33.1;27.5
78767;SHT31;68092;51.982;5.680;2023-06-05T12:26:28;33.2;27.4
78767;SHT31;68092;51.982;5.680;2023-06-05T12:29:30;33.4;27.2
78767;SHT31;68092;51.982;5.680;2023-06-05T12:32:02;33.6;28.4
78767;SHT31;68092;51.982;5.680;2023-06-05T12:34:40;33.8;28.8
78767;SHT31;68092;51.982;5.680;2023-06-05T12:37:25;33.9;27.5
78767;SHT31;68092;51.982;5.680;2023-06-05T12:40:12;34.0;26.2
78767;SHT31;68092;51.982;5.680;2023-06-05T12:42:41;34.1;26.7
78767;SHT31;68092;51.982;5.680;2023-06-05T12:45:14;34.1;26.7
78767;SHT31;68092;51.982;5.680;2023-06-05T12:47:44;34.1;26.7
78767;SHT31;68092;51.982;5.680;2023-06-05T12:50:20;34.1;27.9
78767;SHT31;68092;51.982;5.680;2023-06-05T12:52:50;34.2;26.8
78767;SHT31;68092;51.982;5.680;2023-06-05T12:55:23;34.2;26.2
78767;SHT31;68092;51.982;5.680;2023-06-05T12:57:54;34.3;26.9
78767;SHT31;68092;51.982;5.680;2023-06-05T13:04:09;34.5;26.1
78767;SHT31;68092;51.982;5.680;2023-06-05T13:10:25;34.8;25.6
78767;SHT31;68092;51.982;5.680;2023-06-05T13:12:54;34.8;25.4
78767;SHT31;68092;51.982;5.680;2023-06-05T13:15:27;34.9;25.9
78767;SHT31;68092;51.982;5.680;2023-06-05T13:21:06;35.2;25.3
78767;SHT31;68092;51.982;5.680;2023-06-05T13:23:36;35.3;24.4
78767;SHT31;68092;51.982;5.680;2023-06-05T13:26:06;35.3;25.2
78767;SHT31;68092;51.982;5.680;2023-06-05T13:28:37;35.3;23.6
78767;SHT31;68092;51.982;5.680;2023-06-05T13:31:08;35.3;25.1
78767;SHT31;68092;51.982;5.680;2023-06-05T13:33:43;35.4;23.5
78767;SHT31;68092;51.982;5.680;2023-06-05T13:36:14;35.3;24.6
78767;SHT31;68092;51.982;5.680;2023-06-05T13:38:44;35.3;24.1
78767;SHT31;68092;51.982;5.680;2023-06-05T13:43:53;35.3;25.6
78767;SHT31;68092;51.982;5.680;2023-06-05T13:46:26;35.3;24.9
78767;SHT31;68092;51.982;5.680;2023-06-05T13:48:55;35.3;25.6
78767;SHT31;68092;51.982;5.680;2023-06-05T13:51:28;35.3;25.5
78767;SHT31;68092;51.982;5.680;2023-06-05T13:53:59;35.4;24.4
78767;SHT31;68092;51.982;5.680;2023-06-05T13:56:28;35.5;24.6
78767;SHT31;68092;51.982;5.680;2023-06-05T13:58:58;35.6;24.3
78767;SHT31;68092;51.982;5.680;2023-06-05T14:01:32;35.7;24.8
78767;SHT31;68092;51.982;5.680;2023-06-05T14:04:01;35.8;24.1
78767;SHT31;68092;51.982;5.680;2023-06-05T14:06:34;35.9;25.9
78767;SHT31;68092;51.982;5.680;2023-06-05T14:09:11;36.1;24.9
78767;SHT31;68092;51.982;5.680;2023-06-05T14:11:41;36.2;24.2
78767;SHT31;68092;51.982;5.680;2023-06-05T14:14:12;36.2;22.3
78767;SHT31;68092;51.982;5.680;2023-06-05T14:16:42;36.3;22.5
78767;SHT31;68092;51.982;5.680;2023-06-05T14:19:12;36.3;23.9
78767;SHT31;68092;51.982;5.680;2023-06-05T14:21:51;36.3;22.8
78767;SHT31;68092;51.982;5.680;2023-06-05T14:24:22;36.3;22.7
78767;SHT31;68092;51.982;5.680;2023-06-05T14:26:53;36.2;22.8
78767;SHT31;68092;51.982;5.680;2023-06-05T14:29:23;36.2;22.6
78767;SHT31;68092;51.982;5.680;2023-06-05T14:31:54;36.1;23.5
78767;SHT31;68092;51.982;5.680;2023-06-05T14:34:25;36.1;23.9
78767;SHT31;68092;51.982;5.680;2023-06-05T14:36:55;36.0;22.6
78767;SHT31;68092;51.982;5.680;2023-06-05T14:39:27;36.0;23.2
78767;SHT31;68092;51.982;5.680;2023-06-05T14:41:56;35.9;22.9
78767;SHT31;68092;51.982;5.680;2023-06-05T14:44:26;35.8;24.5
78767;SHT31;68092;51.982;5.680;2023-06-05T14:46:56;35.7;24.7
78767;SHT31;68092;51.982;5.680;2023-06-05T14:49:26;35.7;25.1
78767;SHT31;68092;51.982;5.680;2023-06-05T14:51:57;35.7;23.9
78767;SHT31;68092;51.982;5.680;2023-06-05T14:54:55;35.7;23.5
78767;SHT31;68092;51.982;5.680;2023-06-05T14:57:24;35.7;25.6
78767;SHT31;68092;51.982;5.680;2023-06-05T14:59:58;35.7;23.3
78767;SHT31;68092;51.982;5.680;2023-06-05T15:02:33;35.7;23.5
78767;SHT31;68092;51.982;5.680;2023-06-05T15:05:04;35.7;23.5
78767;SHT31;68092;51.982;5.680;2023-06-05T15:07:51;35.7;24.6
78767;SHT31;68092;51.982;5.680;2023-06-05T15:10:54;35.6;23.9
78767;SHT31;68092;51.982;5.680;2023-06-05T15:13:24;35.6;24.1
78767;SHT31;68092;51.982;5.680;2023-06-05T15:15:56;35.6;24.7
78767;SHT31;68092;51.982;5.680;2023-06-05T15:18:27;35.5;24.5
78767;SHT31;68092;51.982;5.680;2023-06-05T15:20:56;35.5;24.8
78767;SHT31;68092;51.982;5.680;2023-06-05T15:23:28;35.5;24.9
78767;SHT31;68092;51.982;5.680;2023-06-05T15:26:22;35.5;26.9
78767;SHT31;68092;51.982;5.680;2023-06-05T15:28:54;35.4;25.3
78767;SHT31;68092;51.982;5.680;2023-06-05T15:31:56;35.4;25.6
78767;SHT31;68092;51.982;5.680;2023-06-05T15:34:27;35.4;25.1
78767;SHT31;68092;51.982;5.680;2023-06-05T15:37:15;35.3;25.4
78767;SHT31;68092;51.982;5.680;2023-06-05T15:39:44;35.3;25.3
78767;SHT31;68092;51.982;5.680;2023-06-05T15:45:07;35.2;26.3
78767;SHT31;68092;51.982;5.680;2023-06-05T15:47:38;35.1;26.3
78767;SHT31;68092;51.982;5.680;2023-06-05T15:50:15;35.0;26.7
78767;SHT31;68092;51.982;5.680;2023-06-05T15:52:44;35.0;26.8
78767;SHT31;68092;51.982;5.680;2023-06-05T15:55:14;34.9;26.5
78767;SHT31;68092;51.982;5.680;2023-06-05T15:57:44;34.9;26.5
78767;SHT31;68092;51.982;5.680;2023-06-05T16:00:27;34.8;26.9
78767;SHT31;68092;51.982;5.680;2023-06-05T16:02:57;34.8;27.1
78767;SHT31;68092;51.982;5.680;2023-06-05T16:05:27;34.7;27.7
78767;SHT31;68092;51.982;5.680;2023-06-05T16:08:02;34.6;27.2
78767;SHT31;68092;51.982;5.680;2023-06-05T16:10:51;34.6;26.6
78767;SHT31;68092;51.982;5.680;2023-06-05T16:13:24;34.5;27.1
78767;SHT31;68092;51.982;5.680;2023-06-05T16:15:53;34.4;27.0
78767;SHT31;68092;51.982;5.680;2023-06-05T16:18:23;34.3;27.4
78767;SHT31;68092;51.982;5.680;2023-06-05T16:20:53;34.3;27.0
78767;SHT31;68092;51.982;5.680;2023-06-05T16:23:26;34.1;26.9
78767;SHT31;68092;51.982;5.680;2023-06-05T16:25:56;34.0;26.8
78767;SHT31;68092;51.982;5.680;2023-06-05T16:28:33;33.9;27.1
78767;SHT31;68092;51.982;5.680;2023-06-05T16:31:03;33.8;27.4
78767;SHT31;68092;51.982;5.680;2023-06-05T16:33:36;33.6;28.4
78767;SHT31;68092;51.982;5.680;2023-06-05T16:36:07;33.5;27.5
78767;SHT31;68092;51.982;5.680;2023-06-05T16:38:37;33.3;28.7
78767;SHT31;68092;51.982;5.680;2023-06-05T16:41:07;33.1;27.6
78767;SHT31;68092;51.982;5.680;2023-06-05T16:43:37;33.0;28.1
78767;SHT31;68092;51.982;5.680;2023-06-05T16:46:06;32.8;28.6
78767;SHT31;68092;51.982;5.680;2023-06-05T16:48:38;32.7;29.4
78767;SHT31;68092;51.982;5.680;2023-06-05T16:51:08;32.6;29.8
78767;SHT31;68092;51.982;5.680;2023-06-05T16:53:38;32.5;29.0
78767;SHT31;68092;51.982;5.680;2023-06-05T16:56:10;32.4;28.9
78767;SHT31;68092;51.982;5.680;2023-06-05T16:58:44;32.3;29.2
78767;SHT31;68092;51.982;5.680;2023-06-05T17:01:14;32.2;29.2
78767;SHT31;68092;51.982;5.680;2023-06-05T17:04:04;32.1;30.4
78767;SHT31;68092;51.982;5.680;2023-06-05T17:06:34;32.0;30.2